createdAt,value
2024-02-29T00:00:49.078Z,33.37
2024-02-29T00:03:18.837Z,29.40
2024-02-29T00:05:46.725Z,32.00
2024-02-29T00:08:14.599Z,34.83
2024-02-29T00:10:42.461Z,36.40
2024-02-29T00:13:12.190Z,33.33
2024-02-29T00:15:40.120Z,32.80
2024-02-29T00:18:08.428Z,30.40
2024-02-29T00:20:38.137Z,38.93
2024-02-29T00:23:06.279Z,39.83
2024-02-29T00:25:34.163Z,40.43
2024-02-29T00:28:02.307Z,37.00
2024-02-29T00:30:30.216Z,42.10
2024-02-29T00:32:58.566Z,39.00
2024-02-29T00:35:26.589Z,32.20
2024-02-29T00:37:55.849Z,37.10
2024-02-29T00:40:23.852Z,34.27
2024-02-29T00:42:52.301Z,39.00
2024-02-29T00:45:20.258Z,36.53
2024-02-29T00:47:48.243Z,38.77
2024-02-29T00:50:16.289Z,39.20
2024-02-29T00:52:44.195Z,41.10
2024-02-29T00:55:13.954Z,41.97
2024-02-29T00:57:42.513Z,45.37
2024-02-29T01:00:12.813Z,41.70
2024-02-29T01:02:40.682Z,43.37
2024-02-29T01:05:09.385Z,38.30
2024-02-29T01:07:37.681Z,34.03
2024-02-29T01:10:06.614Z,30.43
2024-02-29T01:12:40.577Z,28.47
2024-02-29T01:15:09.670Z,30.83
2024-02-29T01:17:37.957Z,30.30
2024-02-29T01:20:07.097Z,30.30
2024-02-29T01:22:35.025Z,28.17
2024-02-29T01:25:03.124Z,28.07
2024-02-29T01:27:31.178Z,30.27
2024-02-29T01:30:00.442Z,30.30
2024-02-29T01:32:30.131Z,31.50
2024-02-29T01:35:00.318Z,34.47
2024-02-29T01:37:28.226Z,40.30
2024-02-29T01:39:56.177Z,39.77
2024-02-29T01:42:24.085Z,34.07
2024-02-29T01:44:55.230Z,34.30
2024-02-29T01:47:25.454Z,39.23
2024-02-29T01:49:57.085Z,33.73
2024-02-29T01:52:27.237Z,32.77
2024-02-29T01:54:55.309Z,31.13
2024-02-29T01:57:23.475Z,32.33
2024-02-29T01:59:52.313Z,30.37
2024-02-29T02:02:20.240Z,28.73
2024-02-29T02:04:49.636Z,28.53
2024-02-29T02:07:17.902Z,31.03
2024-02-29T02:09:46.901Z,30.37
2024-02-29T02:12:15.812Z,29.93
2024-02-29T02:14:43.703Z,31.63
2024-02-29T02:17:12.147Z,30.80
2024-02-29T02:19:41.210Z,29.90
2024-02-29T02:22:10.958Z,30.20
2024-02-29T02:24:39.335Z,29.13
2024-02-29T02:27:07.598Z,29.77
2024-02-29T02:29:35.466Z,30.77
2024-02-29T02:32:03.389Z,28.90
2024-02-29T02:34:31.695Z,28.80
2024-02-29T02:36:59.734Z,29.73
2024-02-29T02:39:29.088Z,29.03
2024-02-29T02:41:57.012Z,27.33
2024-02-29T02:44:24.881Z,27.27
2024-02-29T02:46:52.753Z,26.57
2024-02-29T02:49:20.670Z,26.20
2024-02-29T02:51:48.701Z,26.70
2024-02-29T02:54:16.690Z,31.40
2024-02-29T02:56:46.063Z,26.30
2024-02-29T02:59:13.984Z,29.50
2024-02-29T03:01:41.899Z,42.27
2024-02-29T03:04:09.875Z,40.10
2024-02-29T03:06:37.846Z,43.07
2024-02-29T03:09:09.670Z,47.83
2024-02-29T03:11:37.576Z,47.57
2024-02-29T03:14:07.029Z,46.80
2024-02-29T03:16:36.627Z,47.80
2024-02-29T03:19:06.011Z,70.13
2024-02-29T03:21:34.172Z,59.43
2024-02-29T03:24:02.173Z,53.43
2024-02-29T03:26:30.489Z,53.60
2024-02-29T03:28:58.394Z,46.37
2024-02-29T03:31:27.773Z,49.73
2024-02-29T03:33:55.786Z,44.03
2024-02-29T03:36:23.666Z,39.93
2024-02-29T03:38:51.571Z,33.03
2024-02-29T03:41:19.455Z,31.90
2024-02-29T03:43:47.368Z,31.90
2024-02-29T03:46:15.309Z,29.63
2024-02-29T03:48:44.662Z,34.00
2024-02-29T03:51:12.561Z,33.57
2024-02-29T03:53:40.683Z,35.47
2024-02-29T03:56:08.855Z,42.60
2024-02-29T03:58:36.988Z,39.67
2024-02-29T04:01:06.606Z,38.63
2024-02-29T04:03:34.742Z,39.33
2024-02-29T04:06:04.132Z,38.83
2024-02-29T04:08:32.496Z,38.93
2024-02-29T04:11:00.467Z,40.03
2024-02-29T04:13:28.417Z,40.47
2024-02-29T04:15:56.459Z,35.67
2024-02-29T04:18:24.412Z,34.43
2024-02-29T04:20:52.741Z,34.57
2024-02-29T04:23:23.032Z,32.33
2024-02-29T04:25:50.929Z,31.90
2024-02-29T04:28:18.970Z,31.83
2024-02-29T04:30:49.618Z,31.47
2024-02-29T04:33:17.684Z,32.00
2024-02-29T04:35:45.721Z,30.60
2024-02-29T04:38:13.727Z,31.60
2024-02-29T04:40:43.025Z,31.23
2024-02-29T04:43:10.998Z,31.53
2024-02-29T04:45:39.008Z,30.20
2024-02-29T04:48:08.073Z,33.07
2024-02-29T04:50:36.154Z,31.40
2024-02-29T04:53:04.070Z,32.70
2024-02-29T04:55:32.751Z,29.10
2024-02-29T04:58:02.231Z,32.87
2024-02-29T05:00:30.201Z,31.83
2024-02-29T05:02:58.157Z,29.20
2024-02-29T05:05:26.130Z,30.50
2024-02-29T05:07:54.101Z,27.27
2024-02-29T05:10:22.709Z,29.07
2024-02-29T05:12:51.721Z,29.77
2024-02-29T05:15:22.048Z,30.53
2024-02-29T05:17:50.018Z,27.33
2024-02-29T05:20:18.301Z,26.07
2024-02-29T05:22:46.191Z,27.20
2024-02-29T05:25:14.567Z,29.20
2024-02-29T05:27:43.217Z,27.33
2024-02-29T05:30:12.179Z,26.57
2024-02-29T05:32:41.516Z,27.27
2024-02-29T05:35:10.245Z,29.00
2024-02-29T05:37:38.187Z,24.93
2024-02-29T05:40:08.420Z,28.00
2024-02-29T05:42:36.473Z,26.47
2024-02-29T05:45:07.311Z,25.67
2024-02-29T05:47:35.282Z,26.60
2024-02-29T05:50:05.024Z,27.17
2024-02-29T05:52:32.990Z,26.80
2024-02-29T05:55:01.007Z,25.83
2024-02-29T05:57:31.901Z,27.93
2024-02-29T06:00:01.602Z,28.33
2024-02-29T06:02:38.732Z,27.27
2024-02-29T06:05:09.988Z,27.93
2024-02-29T06:07:38.263Z,26.87
2024-02-29T06:10:10.173Z,30.37
2024-02-29T06:12:38.383Z,30.50
2024-02-29T06:15:10.712Z,30.77
2024-02-29T06:17:39.435Z,28.67
2024-02-29T06:20:11.631Z,29.67
2024-02-29T06:22:41.571Z,28.73
2024-02-29T06:25:11.260Z,28.50
2024-02-29T06:27:40.327Z,29.00
2024-02-29T06:30:10.218Z,29.87
2024-02-29T06:32:41.576Z,29.00
2024-02-29T06:35:11.451Z,29.70
2024-02-29T06:37:41.594Z,27.93
2024-02-29T06:40:12.261Z,26.97
2024-02-29T06:42:40.487Z,26.70
2024-02-29T06:45:10.331Z,26.27
2024-02-29T06:47:40.894Z,27.73
2024-02-29T06:50:10.122Z,26.83
2024-02-29T06:52:39.500Z,27.80
2024-02-29T06:55:09.278Z,29.37
2024-02-29T06:57:37.776Z,28.23
2024-02-29T07:00:07.408Z,25.57
2024-02-29T07:02:35.660Z,27.57
2024-02-29T07:05:03.718Z,28.17
2024-02-29T07:07:31.694Z,36.60
2024-02-29T07:10:01.138Z,38.00
2024-02-29T07:12:29.089Z,41.13
2024-02-29T07:14:57.899Z,41.37
2024-02-29T07:17:25.773Z,42.17
2024-02-29T07:19:53.679Z,41.57
2024-02-29T07:22:21.637Z,39.00
2024-02-29T07:24:49.492Z,40.27
2024-02-29T07:27:18.732Z,38.97
2024-02-29T07:29:46.603Z,43.37
2024-02-29T07:32:14.464Z,41.83
2024-02-29T07:34:42.312Z,44.20
2024-02-29T07:37:10.163Z,40.00
2024-02-29T07:39:38.054Z,43.20
2024-02-29T07:42:06.280Z,41.60
2024-02-29T07:44:36.358Z,40.43
2024-02-29T07:47:04.202Z,43.97
2024-02-29T07:49:32.949Z,45.17
2024-02-29T07:52:01.102Z,41.47
2024-02-29T07:54:29.065Z,41.00
2024-02-29T07:56:57.283Z,42.37
2024-02-29T07:59:26.652Z,44.83
2024-02-29T08:01:55.982Z,43.53
2024-02-29T08:04:23.935Z,46.10
2024-02-29T08:06:51.858Z,46.90
2024-02-29T08:09:19.759Z,46.03
2024-02-29T08:11:48.222Z,43.03
2024-02-29T08:14:19.017Z,45.20
2024-02-29T08:16:48.436Z,52.27
2024-02-29T08:19:18.131Z,58.50
2024-02-29T08:21:46.102Z,59.17
2024-02-29T08:24:13.963Z,59.60
2024-02-29T08:26:42.198Z,59.37
2024-02-29T08:29:14.380Z,74.33
2024-02-29T08:31:45.020Z,69.63
2024-02-29T08:34:13.011Z,76.83
2024-02-29T08:36:42.436Z,73.27
2024-02-29T08:39:10.397Z,72.37
2024-02-29T08:41:38.398Z,73.00
2024-02-29T08:44:06.316Z,71.40
2024-02-29T08:46:34.194Z,72.00
2024-02-29T08:49:03.646Z,96.40
2024-02-29T08:51:32.725Z,144.40
2024-02-29T08:54:02.009Z,147.27
2024-02-29T08:56:29.920Z,160.60
2024-02-29T08:58:57.797Z,146.80
2024-02-29T09:01:25.805Z,156.80
2024-02-29T09:03:54.222Z,181.77
2024-02-29T09:06:22.097Z,191.17
2024-02-29T09:08:50.318Z,163.17
2024-02-29T09:11:19.878Z,239.00
2024-02-29T09:13:47.768Z,210.47
2024-02-29T09:16:17.336Z,236.27
2024-02-29T09:18:45.488Z,218.20
2024-02-29T09:21:13.426Z,243.57
2024-02-29T09:23:41.648Z,193.17
2024-02-29T09:26:09.607Z,187.83
2024-02-29T09:28:38.872Z,233.33
2024-02-29T09:31:06.739Z,184.53
2024-02-29T09:33:34.608Z,158.90
2024-02-29T09:36:08.046Z,127.97
2024-02-29T09:38:36.718Z,183.83
2024-02-29T09:41:13.234Z,248.03
2024-02-29T09:43:55.847Z,308.33
2024-02-29T09:46:25.202Z,354.93
2024-02-29T09:48:53.769Z,436.73
2024-02-29T09:51:22.983Z,389.60
2024-02-29T09:53:54.127Z,424.90
2024-02-29T09:56:24.271Z,463.63
2024-02-29T09:58:54.732Z,447.37
2024-02-29T10:01:23.135Z,403.63
2024-02-29T10:03:51.675Z,424.47
2024-02-29T10:06:19.867Z,422.10
2024-02-29T10:08:47.745Z,245.43
2024-02-29T10:11:16.249Z,198.20
2024-02-29T10:13:44.161Z,174.90
2024-02-29T10:16:15.084Z,181.23
2024-02-29T10:18:43.154Z,299.57
2024-02-29T10:21:11.922Z,298.40
2024-02-29T10:23:40.697Z,275.00
2024-02-29T10:26:09.691Z,258.07
2024-02-29T10:28:37.783Z,267.23
2024-02-29T10:31:06.082Z,227.57
2024-02-29T10:33:39.411Z,228.67
2024-02-29T10:36:12.797Z,200.80
2024-02-29T10:38:40.825Z,190.43
2024-02-29T10:41:10.121Z,161.90
2024-02-29T10:43:39.538Z,206.63
2024-02-29T10:46:08.309Z,144.40
2024-02-29T10:48:47.646Z,152.80
2024-02-29T10:51:27.188Z,172.07
2024-02-29T10:54:06.374Z,189.80
2024-02-29T10:56:37.254Z,144.47
2024-02-29T10:59:08.181Z,170.10
2024-02-29T11:01:38.250Z,221.83
2024-02-29T11:04:08.152Z,152.50
2024-02-29T11:06:39.873Z,108.47
2024-02-29T11:09:10.352Z,150.60
2024-02-29T11:11:39.178Z,115.43
2024-02-29T11:14:11.486Z,114.13
2024-02-29T11:16:40.971Z,119.83
2024-02-29T11:19:12.629Z,145.87
2024-02-29T11:21:41.088Z,142.27
2024-02-29T11:24:10.473Z,139.60
2024-02-29T11:26:39.424Z,145.40
2024-02-29T11:29:14.013Z,134.10
2024-02-29T11:31:47.891Z,135.20
2024-02-29T11:34:18.012Z,123.03
2024-02-29T11:36:48.220Z,130.77
2024-02-29T11:39:18.616Z,146.17
2024-02-29T11:41:46.582Z,145.97
2024-02-29T11:44:14.587Z,132.93
2024-02-29T11:46:47.112Z,164.70
2024-02-29T11:49:15.928Z,155.47
2024-02-29T11:51:46.214Z,136.77
2024-02-29T11:54:15.413Z,140.87
2024-02-29T11:56:43.542Z,149.47
2024-02-29T11:59:12.183Z,155.17
2024-02-29T12:01:40.338Z,142.17
2024-02-29T12:04:08.512Z,134.07
2024-02-29T12:06:38.096Z,133.97
2024-02-29T12:09:11.601Z,142.37
2024-02-29T12:11:40.042Z,153.20
2024-02-29T12:14:09.433Z,163.70
2024-02-29T12:16:38.896Z,153.43
2024-02-29T12:19:08.167Z,147.20
2024-02-29T12:21:37.314Z,138.27
2024-02-29T12:24:08.984Z,143.93
2024-02-29T12:26:39.109Z,128.93
2024-02-29T12:29:08.370Z,120.13
2024-02-29T12:31:38.040Z,122.37
2024-02-29T12:34:07.812Z,120.97
2024-02-29T12:36:35.800Z,120.63
2024-02-29T12:39:03.836Z,113.57
2024-02-29T12:41:33.151Z,123.40
2024-02-29T12:44:02.421Z,135.33
2024-02-29T12:46:30.555Z,111.40
2024-02-29T12:48:58.522Z,143.37
2024-02-29T12:51:27.631Z,127.50
2024-02-29T12:53:55.520Z,145.60
2024-02-29T12:56:23.396Z,114.83
2024-02-29T12:58:52.650Z,103.97
2024-02-29T13:01:20.664Z,95.87
2024-02-29T13:03:48.775Z,110.63
2024-02-29T13:06:16.807Z,114.63
2024-02-29T13:08:45.726Z,121.10
2024-02-29T13:11:13.612Z,120.87
2024-02-29T13:13:41.559Z,106.53
2024-02-29T13:16:11.279Z,112.20
2024-02-29T13:18:39.241Z,113.97
2024-02-29T13:21:07.659Z,153.33
2024-02-29T13:23:35.605Z,142.93
2024-02-29T13:26:03.968Z,118.13
2024-02-29T13:28:32.319Z,103.83
2024-02-29T13:31:00.217Z,111.70
2024-02-29T13:33:29.622Z,122.80
2024-02-29T13:35:57.601Z,98.70
2024-02-29T13:38:25.676Z,120.60
2024-02-29T13:40:53.709Z,144.13
2024-02-29T13:43:21.739Z,140.33
2024-02-29T13:45:49.848Z,147.90
2024-02-29T13:48:17.852Z,128.80
2024-02-29T13:50:47.278Z,127.10
2024-02-29T13:53:15.738Z,143.37
2024-02-29T13:55:46.458Z,134.70
2024-02-29T13:58:17.631Z,134.77
2024-02-29T14:00:46.028Z,124.57
2024-02-29T14:03:14.100Z,107.17
2024-02-29T14:05:42.038Z,102.87
2024-02-29T14:08:11.400Z,122.53
2024-02-29T14:10:39.362Z,127.40
2024-02-29T14:13:08.029Z,135.23
2024-02-29T14:15:35.974Z,132.20
2024-02-29T14:18:06.359Z,111.77
2024-02-29T14:20:34.293Z,103.67
2024-02-29T14:23:02.256Z,135.00
2024-02-29T14:25:31.767Z,128.33
2024-02-29T14:27:59.931Z,119.30
2024-02-29T14:30:27.841Z,99.83
2024-02-29T14:32:55.793Z,112.40
2024-02-29T14:35:23.717Z,80.80
2024-02-29T14:37:51.701Z,84.40
2024-02-29T14:40:21.533Z,103.83
2024-02-29T14:42:51.664Z,89.20
2024-02-29T14:45:19.659Z,102.83
2024-02-29T14:47:47.691Z,98.23
2024-02-29T14:50:15.612Z,124.13
2024-02-29T14:52:43.606Z,93.27
2024-02-29T14:55:11.724Z,120.50
2024-02-29T14:57:39.810Z,86.67
2024-02-29T15:00:15.167Z,94.20
2024-02-29T15:02:43.491Z,101.20
2024-02-29T15:05:12.462Z,87.47
2024-02-29T15:07:42.108Z,102.30
2024-02-29T15:10:12.322Z,147.53
2024-02-29T15:12:40.382Z,131.77
2024-02-29T15:15:11.136Z,92.67
2024-02-29T15:17:39.655Z,104.73
2024-02-29T15:20:10.205Z,86.93
2024-02-29T15:22:38.205Z,113.50
2024-02-29T15:25:15.577Z,130.80
2024-02-29T15:27:45.054Z,146.33
2024-02-29T15:30:14.772Z,155.07
2024-02-29T15:32:42.830Z,113.97
2024-02-29T15:35:11.047Z,108.17
2024-02-29T15:37:38.993Z,82.83
2024-02-29T15:40:09.462Z,78.37
2024-02-29T15:42:37.693Z,73.40
2024-02-29T15:45:06.712Z,80.77
2024-02-29T15:47:36.148Z,99.10
2024-02-29T15:50:04.513Z,89.67
2024-02-29T15:52:32.434Z,90.87
2024-02-29T15:55:01.076Z,122.93
2024-02-29T15:57:29.321Z,145.77
2024-02-29T15:59:57.742Z,194.17
2024-02-29T16:02:26.093Z,151.93
2024-02-29T16:04:56.095Z,252.00
2024-02-29T16:07:24.121Z,267.10
2024-02-29T16:09:52.133Z,256.67
2024-02-29T16:12:21.264Z,264.40
2024-02-29T16:14:49.888Z,255.10
2024-02-29T16:17:17.891Z,298.80
2024-02-29T16:19:46.761Z,414.40
2024-02-29T16:22:16.850Z,426.83
2024-02-29T16:24:44.784Z,442.23
2024-02-29T16:27:12.721Z,438.60
2024-02-29T16:29:40.854Z,374.43
2024-02-29T16:32:09.067Z,332.67
2024-02-29T16:34:37.557Z,246.63
2024-02-29T16:37:06.585Z,223.17
2024-02-29T16:39:36.403Z,200.23
2024-02-29T16:42:05.934Z,209.67
2024-02-29T16:44:33.814Z,220.87
2024-02-29T16:47:02.448Z,200.93
2024-02-29T16:49:30.674Z,243.93
2024-02-29T16:51:58.730Z,266.03
2024-02-29T16:54:26.718Z,264.03
2024-02-29T16:56:56.272Z,246.40
2024-02-29T16:59:24.210Z,219.37
2024-02-29T17:01:52.198Z,171.27
2024-02-29T17:04:20.246Z,159.23
2024-02-29T17:06:48.313Z,151.10
2024-02-29T17:09:16.368Z,149.53
2024-02-29T17:11:44.314Z,169.50
2024-02-29T17:14:13.605Z,193.90
2024-02-29T17:16:41.488Z,224.50
2024-02-29T17:19:09.453Z,276.43
2024-02-29T17:21:39.446Z,293.30
2024-02-29T17:24:08.303Z,310.33
2024-02-29T17:26:36.226Z,308.87
2024-02-29T17:29:04.133Z,293.90
2024-02-29T17:31:33.471Z,279.60
2024-02-29T17:34:01.677Z,269.73
2024-02-29T17:36:29.617Z,239.67
2024-02-29T17:38:57.521Z,225.33
2024-02-29T17:41:25.445Z,186.70
2024-02-29T17:43:53.339Z,195.67
2024-02-29T17:46:21.268Z,180.93
2024-02-29T17:48:50.583Z,191.33
2024-02-29T17:51:18.514Z,198.27
2024-02-29T17:53:46.535Z,185.80
2024-02-29T17:56:14.591Z,170.77
2024-02-29T17:58:42.518Z,165.63
2024-02-29T18:01:12.062Z,152.47
2024-02-29T18:03:41.390Z,135.50
2024-02-29T18:06:10.829Z,128.37
2024-02-29T18:08:38.795Z,128.13
2024-02-29T18:11:06.850Z,129.00
2024-02-29T18:13:34.777Z,122.67
2024-02-29T18:16:02.908Z,142.93
2024-02-29T18:18:30.881Z,142.33
2024-02-29T18:20:58.860Z,139.47
2024-02-29T18:23:28.173Z,152.30
2024-02-29T18:25:56.716Z,138.73
2024-02-29T18:28:24.991Z,142.27
2024-02-29T18:30:52.958Z,148.37
2024-02-29T18:33:20.891Z,143.87
2024-02-29T18:35:48.848Z,140.67
2024-02-29T18:38:16.790Z,137.43
2024-02-29T18:40:46.175Z,149.10
2024-02-29T18:43:14.184Z,149.43
2024-02-29T18:45:42.232Z,150.90
2024-02-29T18:48:10.477Z,162.30
2024-02-29T18:50:38.410Z,153.47
2024-02-29T18:53:08.608Z,162.27
2024-02-29T18:55:38.068Z,200.00
2024-02-29T18:58:07.786Z,236.10
2024-02-29T19:00:35.753Z,214.20
2024-02-29T19:03:03.818Z,216.00
2024-02-29T19:05:32.379Z,198.80
2024-02-29T19:08:00.326Z,215.67
2024-02-29T19:10:28.314Z,187.37
2024-02-29T19:12:56.275Z,157.57
2024-02-29T19:15:25.573Z,183.50
2024-02-29T19:17:53.534Z,157.83
2024-02-29T19:20:21.752Z,158.77
2024-02-29T19:22:49.694Z,129.33
2024-02-29T19:25:17.769Z,108.00
2024-02-29T19:27:45.867Z,109.20
2024-02-29T19:30:14.560Z,116.67
2024-02-29T19:32:43.969Z,108.43
2024-02-29T19:35:13.052Z,105.73
2024-02-29T19:37:41.434Z,68.10
2024-02-29T19:40:10.565Z,63.10
2024-02-29T19:42:41.437Z,62.33
2024-02-29T19:45:10.523Z,56.27
2024-02-29T19:47:38.935Z,55.53
2024-02-29T19:50:09.364Z,54.63
2024-02-29T19:52:37.341Z,51.20
2024-02-29T19:55:06.892Z,54.63
2024-02-29T19:57:34.952Z,54.27
2024-02-29T20:00:05.161Z,55.03
2024-02-29T20:02:40.159Z,55.83
2024-02-29T20:05:10.632Z,60.40
2024-02-29T20:07:38.516Z,79.90
2024-02-29T20:10:07.336Z,68.00
2024-02-29T20:12:35.281Z,68.60
2024-02-29T20:15:06.796Z,69.30
2024-02-29T20:17:34.783Z,61.27
2024-02-29T20:20:02.700Z,61.93
2024-02-29T20:22:32.155Z,66.67
2024-02-29T20:25:00.121Z,54.20
2024-02-29T20:27:28.123Z,62.73
2024-02-29T20:29:56.075Z,62.93
2024-02-29T20:32:24.043Z,62.47
2024-02-29T20:34:51.965Z,60.33
2024-02-29T20:37:20.946Z,50.93
2024-02-29T20:39:50.346Z,47.33
2024-02-29T20:42:18.929Z,56.00
2024-02-29T20:44:46.867Z,49.93
2024-02-29T20:47:14.808Z,52.03
2024-02-29T20:49:42.730Z,46.30
2024-02-29T20:52:13.619Z,40.20
2024-02-29T20:54:43.154Z,43.87
2024-02-29T20:57:12.489Z,39.23
2024-02-29T20:59:40.728Z,38.13
2024-02-29T21:02:08.702Z,34.83
2024-02-29T21:04:36.662Z,33.20
2024-02-29T21:07:04.668Z,30.93
2024-02-29T21:09:32.573Z,31.50
2024-02-29T21:12:00.522Z,33.50
2024-02-29T21:14:30.066Z,37.37
2024-02-29T21:16:58.015Z,41.07
2024-02-29T21:19:26.196Z,43.70
2024-02-29T21:21:54.134Z,50.20
2024-02-29T21:24:22.045Z,58.13
2024-02-29T21:26:49.924Z,49.47
2024-02-29T21:29:17.907Z,51.87
2024-02-29T21:31:47.967Z,41.67
2024-02-29T21:34:15.930Z,43.30
2024-02-29T21:36:43.800Z,40.30
2024-02-29T21:39:12.169Z,39.80
2024-02-29T21:41:40.643Z,38.80
2024-02-29T21:44:10.928Z,38.37
2024-02-29T21:46:38.865Z,34.43
2024-02-29T21:49:09.648Z,31.07
2024-02-29T21:51:37.599Z,39.57
2024-02-29T21:54:06.113Z,55.00
2024-02-29T21:56:33.980Z,61.70
2024-02-29T21:59:01.821Z,55.43
2024-02-29T22:01:29.738Z,47.53
2024-02-29T22:03:57.812Z,43.70
2024-02-29T22:06:27.265Z,40.37
2024-02-29T22:08:55.126Z,35.37
2024-02-29T22:11:23.062Z,34.53
2024-02-29T22:13:49.916Z,36.80
2024-02-29T22:16:17.887Z,37.23
2024-02-29T22:18:47.077Z,38.97
2024-02-29T22:21:14.961Z,41.67
2024-02-29T22:23:44.249Z,41.77
2024-02-29T22:26:12.096Z,40.97
2024-02-29T22:28:40.140Z,47.17
2024-02-29T22:31:08.053Z,45.77
2024-02-29T22:33:35.946Z,41.50
2024-02-29T22:36:04.290Z,39.83
2024-02-29T22:38:32.161Z,42.77
2024-02-29T22:41:02.130Z,39.17
2024-02-29T22:43:30.158Z,33.87
2024-02-29T22:45:58.400Z,31.70
2024-02-29T22:48:26.327Z,37.57
2024-02-29T22:50:54.235Z,39.13
2024-02-29T22:53:22.240Z,47.43
2024-02-29T22:55:51.521Z,47.97
2024-02-29T22:58:21.463Z,38.53
2024-02-29T23:03:21.841Z,32.37
2024-02-29T23:05:49.998Z,32.37
2024-02-29T23:08:18.176Z,40.23
2024-02-29T23:10:46.269Z,41.53
2024-02-29T23:13:14.347Z,37.17
2024-02-29T23:15:43.616Z,35.90
2024-02-29T23:18:11.530Z,34.53
2024-02-29T23:20:39.458Z,36.40
2024-02-29T23:23:07.343Z,42.20
2024-02-29T23:25:36.086Z,50.73
2024-02-29T23:28:04.526Z,52.50
2024-02-29T23:30:32.623Z,55.63
2024-02-29T23:33:03.498Z,54.77
2024-02-29T23:35:31.465Z,48.40
2024-02-29T23:37:59.361Z,43.80
2024-02-29T23:40:29.285Z,44.97
2024-02-29T23:42:57.460Z,42.57
2024-02-29T23:45:25.486Z,39.63
2024-02-29T23:47:53.956Z,39.77
2024-02-29T23:50:25.783Z,48.97
2024-02-29T23:52:53.635Z,46.10
2024-02-29T23:55:26.432Z,48.60
2024-02-29T23:57:54.834Z,45.20
